Data for 02/22/2015

Time Sea-Level Adjusted Pressure Absolute Pressure Temperature Relative Humidity Dew Point   
(mb) (inHg) (mb) (inHg) (C) (F) (%) (C) (F)
00:05 1028 30.36 858 25.34 -14.5 5.9 64 -19.9 -3.8
00:10 1028 30.36 858 25.34 -14.5 5.8 64 -19.9 -3.8
00:15 1028 30.36 857 25.31 -14.7 5.6 65 -19.9 -3.9
00:20 1028 30.36 857 25.31 -14.7 5.6 64 -20 -4
00:25 1028 30.36 857 25.31 -14.8 5.4 65 -20 -4
00:30 1028 30.36 857 25.31 -14.7 5.5 65 -20 -4
00:35 1028 30.36 857 25.31 -14.8 5.3 65 -20 -4
00:40 1028 30.36 857 25.31 -14.9 5.2 65 -20 -4
00:45 1028 30.36 857 25.31 -14.7 5.5 65 -19.9 -3.9
00:50 1028 30.36 857 25.31 -14.8 5.3 66 -19.9 -3.9
00:55 1028 30.36 857 25.31 -14.8 5.4 66 -19.9 -3.8
01:00 1028 30.36 857 25.31 -14.7 5.5 65 -19.9 -3.8
01:05 1028 30.36 857 25.31 -14.7 5.5 65 -19.9 -3.8
01:10 1028 30.36 857 25.31 -14.8 5.4 66 -19.9 -3.8
01:15 1028 30.36 857 25.31 -15.4 4.4 67 -20.1 -4.2
01:20 1028 30.36 857 25.31 -15.8 3.5 70 -20.2 -4.3
01:25 1028 30.36 857 25.31 -15.8 3.5 69 -20.2 -4.4
01:30 1028 30.36 857 25.31 -15.8 3.6 70 -20.1 -4.2
01:35 1028 30.36 858 25.34 -15.9 3.5 70 -20.2 -4.3
01:40 1028 30.36 858 25.34 -15.9 3.5 70 -20.1 -4.2
01:45 1028 30.36 858 25.34 -15.6 4 69 -20 -4
01:50 1028 30.36 858 25.34 -15.2 4.6 68 -19.8 -3.6
01:55 1028 30.36 858 25.34 -15.2 4.6 68 -19.8 -3.7
02:00 1028 30.36 858 25.34 -15.3 4.4 68 -19.9 -3.8
02:05 1028 30.36 858 25.34 -15.6 3.9 69 -20 -4.1
02:10 1028 30.36 858 25.34 -15.7 3.7 70 -20.1 -4.1
02:15 1028 30.36 858 25.34 -15.8 3.6 69 -20.1 -4.3
02:20 1028 30.36 858 25.34 -15.7 3.8 69 -20.1 -4.2
02:25 1028 30.36 858 25.34 -15.7 3.8 69 -20.1 -4.2
02:30 1028 30.36 858 25.34 -15.6 3.9 69 -20.1 -4.3
02:35 1028 30.36 858 25.34 -15.7 3.8 69 -20.1 -4.2
02:40 1028 30.36 858 25.34 -16 3.2 71 -20.2 -4.3
02:45 1028 30.36 858 25.34 -15.9 3.3 70 -20.3 -4.5
02:50 1028 30.36 858 25.34 -16.1 3 72 -20.1 -4.2
02:55 1028 30.36 858 25.34 -16.6 2.2 73 -20.3 -4.6
03:00 1028 30.36 858 25.34 -16.5 2.4 72 -20.5 -4.8
03:05 1028 30.36 858 25.34 -16.4 2.5 72 -20.4 -4.7
03:10 1028 30.36 858 25.34 -16.5 2.4 72 -20.5 -4.8
03:15 1028 30.36 858 25.34 -16.8 1.7 73 -20.5 -5
03:20 1028 30.36 858 25.34 -17 1.4 75 -20.5 -4.9
03:25 1028 30.36 858 25.34 -16.7 1.9 73 -20.5 -4.9
03:30 1028 30.36 858 25.34 -16.8 1.7 74 -20.4 -4.8
03:35 1028 30.36 857 25.31 -17 1.4 74 -20.6 -5
03:40 1028 30.36 858 25.34 -16.8 1.7 73 -20.7 -5.2
03:45 1028 30.36 857 25.31 -16.7 2 72 -20.7 -5.2
03:50 1028 30.36 857 25.31 -16.7 1.9 72 -20.6 -5.1
03:55 1028 30.36 857 25.31 -17.1 1.3 74 -20.8 -5.4
04:00 1028 30.36 857 25.31 -17.2 1.1 75 -20.7 -5.2
04:05 1028 30.36 857 25.31 -17.4 0.8 75 -20.8 -5.5
04:10 1028 30.36 858 25.34 -17.4 0.6 75 -20.8 -5.4
04:15 1028 30.36 858 25.34 -17.4 0.6 76 -20.7 -5.3
04:20 1028 30.36 857 25.31 -17.5 0.5 77 -20.7 -5.2
04:25 1028 30.36 858 25.34 -17.4 0.8 76 -20.7 -5.3
04:30 1028 30.36 858 25.34 -17.1 1.1 75 -20.7 -5.2
04:35 1028 30.36 858 25.34 -17.4 0.8 74 -20.9 -5.6
04:40 1028 30.36 858 25.34 -17.6 0.3 75 -21.1 -6
04:45 1028 30.36 858 25.34 -18 -0.3 76 -21.3 -6.3
04:50 1028 30.36 858 25.34 -18.3 -0.9 77 -21.4 -6.4
04:55 1028 30.36 857 25.31 -18 -0.3 76 -21.3 -6.3
05:00 1028 30.36 858 25.34 -18 -0.3 75 -21.4 -6.5
05:05 1028 30.36 858 25.34 -18.4 -1.1 76 -21.6 -6.8
05:10 1028 30.36 858 25.34 -18.4 -1.1 78 -21.3 -6.3
05:15 1028 30.36 858 25.34 -18 -0.3 74 -21.5 -6.8
05:20 1028 30.36 858 25.34 -18.4 -1.1 76 -21.6 -6.9
05:25 1028 30.36 858 25.34 -18.7 -1.6 76 -21.9 -7.5
05:30 1028 30.36 858 25.34 -18.8 -1.8 76 -22.1 -7.7
05:35 1028 30.36 857 25.31 -18.6 -1.6 75 -22 -7.6
05:40 1028 30.36 858 25.34 -18.6 -1.6 75 -22 -7.7
05:45 1028 30.36 858 25.34 -18.7 -1.7 75 -22.1 -7.7
05:50 1028 30.36 857 25.31 -18.9 -2.1 76 -22.2 -8
05:55 1028 30.36 857 25.31 -19.2 -2.5 76 -22.4 -8.3
06:00 1028 30.36 857 25.31 -19.3 -2.7 77 -22.4 -8.3
06:05 1028 30.36 857 25.31 -19.4 -2.8 76 -22.5 -8.5
06:10 1028 30.36 857 25.31 -19.3 -2.7 76 -22.5 -8.5
06:15 1028 30.36 857 25.31 -19.1 -2.4 75 -22.5 -8.5
06:20 1028 30.36 857 25.31 -19 -2.2 75 -22.4 -8.3
06:25 1028 30.36 857 25.31 -18.8 -1.9 75 -22.3 -8.1
06:30 1028 30.36 857 25.31 -18.7 -1.7 75 -22.2 -7.9
06:35 1028 30.36 857 25.31 -18.9 -1.9 75 -22.2 -8
06:40 1028 30.36 857 25.31 -18.9 -2 75 -22.2 -8
06:45 1028 30.36 857 25.31 -19.2 -2.6 76 -22.4 -8.4
06:50 1028 30.36 857 25.31 -19.3 -2.8 76 -22.6 -8.7
06:55 1028 30.36 857 25.31 -19.5 -3.1 77 -22.6 -8.7
07:00 1028 30.36 857 25.31 -19.7 -3.4 77 -22.7 -8.9
07:05 1028 30.36 857 25.31 -19.7 -3.5 78 -22.7 -8.8
07:10 1028 30.36 857 25.31 -19.7 -3.5 78 -22.7 -8.8
07:15 1028 30.36 857 25.31 -19.4 -3 76 -22.6 -8.7
07:20 1028 30.36 857 25.31 -19.3 -2.7 77 -22.4 -8.4
07:25 1028 30.36 857 25.31 -19.1 -2.3 76 -22.3 -8.2
07:30 1028 30.36 857 25.31 -18.9 -2 75 -22.3 -8.1
07:35 1028 30.36 857 25.31 -18.9 -2 75 -22.2 -8
07:40 1028 30.36 857 25.31 -19 -2.1 76 -22.2 -8
07:45 1028 30.36 857 25.31 -19.2 -2.6 76 -22.5 -8.5
07:50 1028 30.36 857 25.31 -19.5 -3 76 -22.7 -8.9
07:55 1028 30.36 857 25.31 -19.5 -3 75 -22.8 -9.1
08:00 1028 30.36 857 25.31 -19.5 -3.1 75 -22.8 -9
08:05 1028 30.36 857 25.31 -19.4 -2.9 75 -22.7 -8.9
08:10 1028 30.36 857 25.31 -19.4 -2.9 75 -22.7 -8.9
08:15 1028 30.36 857 25.31 -19.3 -2.8 74 -22.8 -9
08:20 1028 30.36 857 25.31 -19.3 -2.7 74 -22.8 -9.1
08:25 1028 30.36 857 25.31 -19.6 -3.3 74 -23.2 -9.7
08:30 1028 30.36 857 25.31 -19.9 -3.9 74 -23.4 -10.2
08:35 1028 30.36 857 25.31 -20 -4 74 -23.5 -10.3
08:40 1028 30.36 857 25.31 -19.6 -3.3 74 -23.2 -9.8
08:45 1028 30.36 857 25.31 -19.2 -2.6 72 -23 -9.5
08:50 1028 30.36 857 25.31 -18.9 -2 71 -23 -9.4
08:55 1028 30.36 857 25.31 -18.8 -1.8 70 -23 -9.4
09:00 1028 30.36 857 25.31 -18.6 -1.4 71 -22.7 -8.8
09:05 1028 30.36 857 25.31 -18.1 -0.5 70 -22.3 -8.2
09:10 1028 30.36 857 25.31 -17.8 0 68 -22.3 -8.1
09:15 1028 30.36 857 25.31 -17.4 0.7 68 -22 -7.7
09:20 1028 30.36 858 25.34 -17.3 0.8 66 -22.2 -7.9
09:25 1028 30.36 858 25.34 -17.2 1 65 -22.4 -8.3
09:30 1028 30.36 858 25.34 -17.4 0.6 66 -22.4 -8.3
09:35 1028 30.36 858 25.34 -17.1 1.3 63 -22.5 -8.4
09:40 1028 30.36 858 25.34 -16.7 1.9 62 -22.4 -8.2
09:45 1028 30.36 858 25.34 -16.9 1.6 64 -22.2 -8
09:50 1028 30.36 858 25.34 -17 1.5 63 -22.5 -8.5
09:55 1028 30.36 858 25.34 -16.7 1.9 63 -22.3 -8.1
10:00 1028 30.36 858 25.34 -15.9 3.4 60 -21.9 -7.5
10:05 1028 30.36 858 25.34 -15.1 4.8 57 -22 -7.5
10:10 1028 30.36 858 25.34 -15.3 4.5 58 -21.7 -7.1
10:15 1028 30.36 858 25.34 -15.4 4.3 57 -22 -7.6
10:20 1028 30.36 858 25.34 -14.8 5.3 56 -21.7 -7.1
10:25 1028 30.36 858 25.34 -14.4 6.2 55 -21.6 -6.8
10:30 1028 30.36 858 25.34 -13.8 7.1 54 -21.2 -6.2
10:35 1028 30.36 858 25.34 -13.4 7.8 52 -21.3 -6.4
10:40 1028 30.36 858 25.34 -13.2 8.3 52 -21 -5.8
10:45 1028 30.36 857 25.31 -13.4 7.9 49 -21.9 -7.4
10:50 1028 30.36 857 25.31 -13.6 7.6 50 -22 -7.6
10:55 1028 30.36 857 25.31 -13.8 7.3 52 -21.7 -7
11:00 1028 30.36 857 25.31 -13.6 7.6 50 -21.8 -7.2
11:05 1028 30.36 857 25.31 -13.3 8.1 51 -21.5 -6.8
11:10 1028 30.36 857 25.31 -13.3 8 52 -21.3 -6.3
11:15 1028 30.36 857 25.31 -12.8 9 48 -21.6 -6.8
11:20 1028 30.36 857 25.31 -12.2 10.1 46 -21.6 -6.8
11:25 1028 30.36 857 25.31 -12.4 9.6 48 -21.4 -6.6
11:30 1028 30.36 857 25.31 -13 8.7 50 -21.4 -6.5
11:35 1028 30.36 857 25.31 -12.8 8.9 50 -21.3 -6.3
11:40 1028 30.36 857 25.31 -12.8 9 48 -21.6 -6.8
11:45 1028 30.36 857 25.31 -12.6 9.2 47 -21.7 -7.1
11:50 1028 30.36 857 25.31 -12.7 9.2 49 -21.4 -6.5
11:55 1028 30.36 857 25.31 -12.4 9.7 50 -20.9 -5.5
12:00 1028 30.36 857 25.31 -12.6 9.3 51 -20.9 -5.6
12:05 1028 30.36 857 25.31 -12.5 9.5 51 -20.7 -5.2
12:10 1028 30.36 857 25.31 -13 8.7 53 -20.7 -5.3
12:15 1028 30.36 857 25.31 -13.2 8.3 54 -20.5 -5
12:20 1028 30.36 857 25.31 -12.5 9.5 52 -20.5 -4.9
12:25 1028 30.36 857 25.31 -12.5 9.6 56 -19.5 -3.1
12:30 1028 30.36 857 25.31 -12.9 8.8 59 -19.3 -2.8
12:35 1028 30.36 857 25.31 -12.7 9.2 55 -19.9 -3.8
12:40 1028 30.36 857 25.31 -11.7 11 54 -19.3 -2.7
12:45 1028 30.36 857 25.31 -11.2 11.9 53 -18.9 -2.1
12:50 1028 30.36 857 25.31 -11.3 11.7 52 -19.3 -2.7
12:55 1028 30.36 857 25.31 -11.2 11.8 53 -19 -2.2
13:00 1028 30.36 857 25.31 -11.6 11.1 54 -19.3 -2.7
13:05 1028 30.36 857 25.31 -11.8 10.8 54 -19.2 -2.6
13:10 1028 30.36 857 25.31 -11.6 11.1 54 -19.3 -2.7
13:15 1028 30.36 857 25.31 -11.3 11.6 52 -19.3 -2.8
13:20 1028 30.36 857 25.31 -11.6 11.1 53 -19.4 -2.9
13:25 1028 30.36 857 25.31 -11.8 10.7 54 -19.3 -2.8
13:30 1028 30.36 857 25.31 -11.1 12 51 -19.3 -2.8
13:35 1027 30.33 857 25.31 -11.1 12.1 54 -18.6 -1.5
13:40 1027 30.33 857 25.31 -11.4 11.5 55 -18.8 -1.8
13:45 1027 30.33 857 25.31 -11.4 11.5 51 -19.6 -3.2
13:50 1027 30.33 856 25.28 -11.5 11.3 54 -19 -2.3
13:55 1027 30.33 856 25.28 -10.5 13 50 -19.1 -2.4
14:00 1027 30.33 856 25.28 -9.7 14.6 48 -18.7 -1.7
14:05 1027 30.33 856 25.28 -8.8 16.2 46 -18.3 -1
14:10 1027 30.33 856 25.28 -9.2 15.5 46 -18.7 -1.6
14:15 1027 30.33 856 25.28 -9.1 15.6 46 -18.8 -1.8
14:20 1027 30.33 856 25.28 -9.4 15.2 48 -18.5 -1.4
14:25 1027 30.33 856 25.28 -10.1 13.9 51 -18.5 -1.3
14:30 1027 30.33 856 25.28 -10.1 13.9 49 -18.8 -1.9
14:35 1027 30.33 856 25.28 -10 14 49 -18.8 -1.8
14:40 1027 30.33 856 25.28 -9.5 14.9 48 -18.7 -1.7
14:45 1027 30.33 856 25.28 -9.5 14.9 48 -18.6 -1.4
14:50 1027 30.33 856 25.28 -9.5 14.9 45 -19.3 -2.8
14:55 1027 30.33 856 25.28 -9.7 14.6 45 -19.4 -3
15:00 1027 30.33 856 25.28 -10.1 13.9 47 -19.4 -2.9
15:05 1027 30.33 856 25.28 -9.5 15 46 -19.1 -2.3
15:10 1027 30.33 856 25.28 -9.4 15.1 46 -18.9 -2.1
15:15 1027 30.33 856 25.28 -9.2 15.5 43 -19.6 -3.3
15:20 1027 30.33 856 25.28 -9.4 15.1 47 -18.7 -1.7
15:25 1027 30.33 856 25.28 -8.7 16.4 42 -19.3 -2.8
15:30 1027 30.33 856 25.28 -9.1 15.6 41 -20 -4
15:35 1027 30.33 856 25.28 -9.6 14.7 43 -19.9 -3.9
15:40 1027 30.33 856 25.28 -9.7 14.5 44 -19.9 -3.8
15:45 1027 30.33 856 25.28 -9.9 14.1 40 -21.1 -5.9
15:50 1027 30.33 856 25.28 -10.2 13.7 40 -21.4 -6.5
15:55 1027 30.33 856 25.28 -9.9 14.1 36 -22.4 -8.2
16:00 1027 30.33 856 25.28 -10.3 13.5 34 -23.5 -10.3
16:05 1027 30.33 856 25.28 -10.1 13.8 34 -23.3 -9.9
16:10 1027 30.33 856 25.28 -9.3 15.3 32 -23.2 -9.8
16:15 1027 30.33 856 25.28 -9.2 15.5 31 -23.3 -10
16:20 1027 30.33 856 25.28 -9.1 15.7 30 -23.6 -10.4
16:25 1027 30.33 856 25.28 -8.8 16.2 28 -24.2 -11.5
16:30 1027 30.33 856 25.28 -8.6 16.6 28 -24.1 -11.4
16:35 1027 30.33 856 25.28 -8.2 17.2 28 -23.8 -10.9
16:40 1027 30.33 856 25.28 -8.3 17.1 29 -23.6 -10.4
16:45 1027 30.33 856 25.28 -8.9 16 31 -23.2 -9.8
16:50 1027 30.33 856 25.28 -9 15.9 28 -24.3 -11.7
16:55 1027 30.33 856 25.28 -9.2 15.5 29 -24 -11.3
17:00 1027 30.33 856 25.28 -8.9 16 29 -23.8 -10.8
17:05 1027 30.33 856 25.28 -8.4 16.9 26 -24.5 -12.2
17:10 1027 30.33 856 25.28 -8.3 17.1 29 -23.3 -9.9
17:15 1027 30.33 856 25.28 -8.7 16.4 26 -24.9 -12.8
17:20 1027 30.33 856 25.28 -9.1 15.5 30 -23.8 -10.9
17:25 1027 30.33 856 25.28 -9.4 15 29 -24.4 -12
17:30 1027 30.33 856 25.28 -9.6 14.8 29 -24.4 -11.8
17:35 1027 30.33 856 25.28 -9.4 15 29 -24.4 -11.9
17:40 1027 30.33 856 25.28 -9.5 15 30 -24.1 -11.4
17:45 1026 30.3 856 25.28 -9.6 14.8 26 -25.8 -14.5
17:50 1027 30.33 856 25.28 -9.9 14.3 25 -26.6 -15.8
17:55 1027 30.33 856 25.28 -9.8 14.4 25 -26.4 -15.5
18:00 1027 30.33 856 25.28 -9.4 15.2 24 -26.5 -15.6
18:05 1027 30.33 856 25.28 -9.2 15.4 25 -26 -14.7
18:10 1027 30.33 856 25.28 -9.5 15 23 -27.1 -16.8
18:15 1027 30.33 856 25.28 -9.6 14.7 22 -27.7 -17.9
18:20 1027 30.33 856 25.28 -9.4 15 23 -27.2 -17
18:25 1027 30.33 856 25.28 -9.3 15.3 23 -26.8 -16.2
18:30 1027 30.33 856 25.28 -9.7 14.6 23 -27 -16.6
18:35 1027 30.33 856 25.28 -10 14 30 -24.4 -12
18:40 1027 30.33 856 25.28 -10.1 13.9 32 -23.9 -11.1
18:45 1027 30.33 856 25.28 -10.2 13.7 33 -23.6 -10.4
18:50 1027 30.33 856 25.28 -10.2 13.6 33 -23.7 -10.7
18:55 1027 30.33 856 25.28 -10.6 12.9 36 -23 -9.4
19:00 1027 30.33 856 25.28 -11.1 12.1 38 -22.6 -8.7
19:05 1027 30.33 856 25.28 -11.4 11.5 41 -22.3 -8.1
19:10 1027 30.33 856 25.28 -11.4 11.5 42 -22 -7.6
19:15 1027 30.33 856 25.28 -11.4 11.5 42 -22 -7.6
19:20 1027 30.33 856 25.28 -11.5 11.2 35 -24.1 -11.4
19:25 1027 30.33 856 25.28 -11.8 10.8 38 -23.5 -10.3
19:30 1027 30.33 856 25.28 -12.2 10.1 40 -23.3 -10
19:35 1027 30.33 856 25.28 -12.5 9.6 43 -22.7 -8.8
19:40 1027 30.33 856 25.28 -12.9 8.8 46 -22.3 -8.1
19:45 1027 30.33 856 25.28 -13 8.6 45 -22.5 -8.5
19:50 1027 30.33 856 25.28 -12.8 9.1 50 -21.2 -6.2
19:55 1027 30.33 856 25.28 -12.9 8.8 53 -20.5 -4.9
20:00 1027 30.33 856 25.28 -13.4 8 56 -20.5 -4.9
20:05 1027 30.33 856 25.28 -13.6 7.6 56 -20.6 -5.1
20:10 1027 30.33 856 25.28 -13.7 7.3 56 -20.8 -5.5
20:15 1027 30.33 856 25.28 -13.9 7 52 -21.8 -7.3
20:20 1027 30.33 857 25.31 -14 6.7 50 -22.3 -8.1
20:25 1027 30.33 856 25.28 -14 6.9 54 -21.4 -6.5
20:30 1027 30.33 857 25.31 -13.9 7.1 55 -21.1 -6
20:35 1027 30.33 857 25.31 -13.8 7.1 58 -20.4 -4.7
20:40 1027 30.33 856 25.28 -13.9 6.9 59 -20.3 -4.5
20:45 1027 30.33 856 25.28 -13.8 7.1 59 -20.1 -4.2
20:50 1027 30.33 856 25.28 -13.8 7.3 61 -19.8 -3.7
20:55 1027 30.33 856 25.28 -14 6.8 61 -19.9 -3.9
21:00 1027 30.33 857 25.31 -14.2 6.5 62 -20 -4.1
21:05 1027 30.33 857 25.31 -14.2 6.5 62 -20 -4
21:10 1027 30.33 857 25.31 -14.5 5.8 62 -20.3 -4.6
21:15 1027 30.33 857 25.31 -14.9 5.1 63 -20.5 -4.9
21:20 1027 30.33 857 25.31 -14.5 5.9 63 -20.2 -4.3
21:25 1028 30.36 857 25.31 -14.3 6.3 63 -19.9 -3.8
21:30 1028 30.36 857 25.31 -14.4 6.2 64 -19.7 -3.5
21:35 1028 30.36 857 25.31 -14.7 5.5 66 -19.8 -3.6
21:40 1028 30.36 857 25.31 -14.9 5.1 67 -19.7 -3.5
21:45 1027 30.33 857 25.31 -15.1 4.9 67 -19.9 -3.7
21:50 1028 30.36 857 25.31 -15.1 4.9 67 -19.9 -3.8
21:55 1028 30.36 857 25.31 -15 4.9 67 -19.9 -3.8
22:00 1028 30.36 857 25.31 -14.8 5.4 64 -20.2 -4.4
22:05 1028 30.36 857 25.31 -14.5 5.9 62 -20.3 -4.5
22:10 1028 30.36 857 25.31 -14.6 5.7 61 -20.6 -5.2
22:15 1028 30.36 857 25.31 -14.7 5.6 59 -21 -5.9
22:20 1028 30.36 857 25.31 -15 5 62 -20.8 -5.4
22:25 1028 30.36 857 25.31 -15.2 4.6 63 -20.7 -5.3
22:30 1028 30.36 857 25.31 -15.6 4 63 -21.1 -5.9
22:35 1028 30.36 857 25.31 -15.5 4.1 65 -20.7 -5.3
22:40 1028 30.36 857 25.31 -15.4 4.2 67 -20.3 -4.6
22:45 1028 30.36 857 25.31 -15.6 4 68 -20.2 -4.4
22:50 1028 30.36 857 25.31 -15.6 4 68 -20.2 -4.3
22:55 1028 30.36 857 25.31 -15.5 4.2 68 -20 -4
23:00 1028 30.36 857 25.31 -15.4 4.2 67 -20.2 -4.3
23:05 1028 30.36 857 25.31 -15.4 4.3 67 -20.2 -4.3
23:10 1028 30.36 857 25.31 -15.4 4.3 68 -20 -4
23:15 1028 30.36 857 25.31 -15.2 4.6 67 -19.9 -3.9
23:20 1028 30.36 857 25.31 -15.2 4.6 67 -20.1 -4.1
23:25 1028 30.36 857 25.31 -15.3 4.4 66 -20.4 -4.7
23:30 1028 30.36 857 25.31 -15.7 3.8 66 -20.7 -5.3
23:35 1028 30.36 857 25.31 -15.5 4.1 64 -20.9 -5.5
23:40 1028 30.36 857 25.31 -14.8 5.4 64 -20.2 -4.3
23:45 1028 30.36 857 25.31 -14.7 5.5 65 -19.9 -3.9
23:50 1028 30.36 857 25.31 -14.8 5.3 65 -20 -4
23:55 1028 30.36 857 25.31 -15 4.9 65 -20.1 -4.3
24:00 1028 30.36 857 25.31 -15.4 4.3 66 -20.4 -4.7